<?xml version="1.0" encoding="UTF-8" standalone="no" ?>
<gpx xmlns="http://www.topografix.com/GPX/1/1" xmlns:xsi="http://www.w3.org/2001/XMLSchema-instance" xsi:schemaLocation="http://www.topografix.com/GPX/1/1 http://www.topografix.com/GPX/1/1/gpx.xsd" version="1.1" creator="VisuGPX - https://www.visugpx.com">
  <metadata>
    <name>Mont saint jean cordée saut du serf roche brune </name>
    <desc><![CDATA[Sillé le Guillaume
Saut du serf
Roche brune
Cordée]]></desc>
  </metadata>
  <trk>
    <name><![CDATA[Mont saint jean cordée saut du serf roche brune _1]]></name>
    <trkseg>
      <trkpt lat="48.22826" lon="-0.0676">
        <ele>225.6</ele>
      </trkpt>
      <trkpt lat="48.22827" lon="-0.06767">
        <ele>225.8</ele>
      </trkpt>
      <trkpt lat="48.22826" lon="-0.06758">
        <ele>225.5</ele>
      </trkpt>
      <trkpt lat="48.22824" lon="-0.0674">
        <ele>217.41</ele>
        <time>2020-12-19T13:10:02Z</time>
      </trkpt>
      <trkpt lat="48.22812" lon="-0.06668">
        <ele>219.41</ele>
        <time>2020-12-19T13:10:33Z</time>
      </trkpt>
      <trkpt lat="48.22814" lon="-0.06648">
        <ele>219.41</ele>
        <time>2020-12-19T13:11:04Z</time>
      </trkpt>
      <trkpt lat="48.22812" lon="-0.06634">
        <ele>211.41</ele>
        <time>2020-12-19T13:11:35Z</time>
      </trkpt>
      <trkpt lat="48.22816" lon="-0.06618">
        <ele>209.41</ele>
        <time>2020-12-19T13:12:05Z</time>
      </trkpt>
      <trkpt lat="48.22825" lon="-0.066">
        <ele>204.41</ele>
        <time>2020-12-19T13:12:35Z</time>
      </trkpt>
      <trkpt lat="48.22831" lon="-0.06589">
        <ele>210.41</ele>
        <time>2020-12-19T13:13:05Z</time>
      </trkpt>
      <trkpt lat="48.22829" lon="-0.06592">
        <ele>206.41</ele>
        <time>2020-12-19T13:13:35Z</time>
      </trkpt>
      <trkpt lat="48.22825" lon="-0.06603">
        <ele>200.41</ele>
        <time>2020-12-19T13:14:06Z</time>
      </trkpt>
      <trkpt lat="48.22807" lon="-0.06604">
        <ele>201.41</ele>
        <time>2020-12-19T13:14:36Z</time>
      </trkpt>
      <trkpt lat="48.22789" lon="-0.06588">
        <ele>206.41</ele>
        <time>2020-12-19T13:15:07Z</time>
      </trkpt>
      <trkpt lat="48.22789" lon="-0.06587">
        <ele>207.41</ele>
        <time>2020-12-19T13:15:38Z</time>
      </trkpt>
      <trkpt lat="48.2279" lon="-0.06587">
        <ele>207.41</ele>
        <time>2020-12-19T13:16:08Z</time>
      </trkpt>
      <trkpt lat="48.2279" lon="-0.06587">
        <ele>206.41</ele>
        <time>2020-12-19T13:16:39Z</time>
      </trkpt>
      <trkpt lat="48.22822" lon="-0.0655">
        <ele>203.41</ele>
        <time>2020-12-19T13:17:11Z</time>
      </trkpt>
      <trkpt lat="48.22826" lon="-0.06542">
        <ele>203.41</ele>
        <time>2020-12-19T13:17:41Z</time>
      </trkpt>
      <trkpt lat="48.22827" lon="-0.06542">
        <ele>202.41</ele>
        <time>2020-12-19T13:18:12Z</time>
      </trkpt>
      <trkpt lat="48.22842" lon="-0.06541">
        <ele>189.41</ele>
        <time>2020-12-19T13:18:42Z</time>
      </trkpt>
      <trkpt lat="48.22862" lon="-0.06546">
        <ele>194.41</ele>
        <time>2020-12-19T13:19:12Z</time>
      </trkpt>
      <trkpt lat="48.22881" lon="-0.06578">
        <ele>193.41</ele>
        <time>2020-12-19T13:19:42Z</time>
      </trkpt>
      <trkpt lat="48.22899" lon="-0.06595">
        <ele>193.41</ele>
        <time>2020-12-19T13:20:12Z</time>
      </trkpt>
      <trkpt lat="48.22906" lon="-0.06605">
        <ele>203.2</ele>
      </trkpt>
      <trkpt lat="48.2291" lon="-0.06598">
        <ele>203</ele>
      </trkpt>
      <trkpt lat="48.22912" lon="-0.06591">
        <ele>203.1</ele>
      </trkpt>
      <trkpt lat="48.2291" lon="-0.0657">
        <ele>205.2</ele>
      </trkpt>
      <trkpt lat="48.2292" lon="-0.06574">
        <ele>199.41</ele>
        <time>2020-12-19T13:22:16Z</time>
      </trkpt>
      <trkpt lat="48.2292" lon="-0.06563">
        <ele>206</ele>
      </trkpt>
      <trkpt lat="48.2293" lon="-0.0657">
        <ele>205.3</ele>
      </trkpt>
      <trkpt lat="48.22928" lon="-0.06554">
        <ele>207.5</ele>
      </trkpt>
      <trkpt lat="48.22943" lon="-0.06551">
        <ele>208.2</ele>
      </trkpt>
      <trkpt lat="48.2294" lon="-0.06525">
        <ele>211.7</ele>
      </trkpt>
      <trkpt lat="48.22927" lon="-0.06509">
        <ele>215.41</ele>
        <time>2020-12-19T13:23:47Z</time>
      </trkpt>
      <trkpt lat="48.22918" lon="-0.06511">
        <ele>216.41</ele>
        <time>2020-12-19T13:24:18Z</time>
      </trkpt>
      <trkpt lat="48.22911" lon="-0.06512">
        <ele>217.41</ele>
        <time>2020-12-19T13:24:49Z</time>
      </trkpt>
      <trkpt lat="48.229" lon="-0.06529">
        <ele>211.41</ele>
        <time>2020-12-19T13:25:20Z</time>
      </trkpt>
      <trkpt lat="48.22907" lon="-0.06515">
        <ele>211.9</ele>
      </trkpt>
      <trkpt lat="48.22918" lon="-0.06512">
        <ele>213.2</ele>
      </trkpt>
      <trkpt lat="48.22925" lon="-0.06507">
        <ele>214.1</ele>
      </trkpt>
      <trkpt lat="48.22935" lon="-0.06517">
        <ele>216.41</ele>
        <time>2020-12-19T13:27:23Z</time>
      </trkpt>
      <trkpt lat="48.22952" lon="-0.06536">
        <ele>209.41</ele>
        <time>2020-12-19T13:27:53Z</time>
      </trkpt>
      <trkpt lat="48.22973" lon="-0.06561">
        <ele>210.41</ele>
        <time>2020-12-19T13:28:24Z</time>
      </trkpt>
      <trkpt lat="48.22995" lon="-0.06585">
        <ele>205.41</ele>
        <time>2020-12-19T13:28:55Z</time>
      </trkpt>
      <trkpt lat="48.23014" lon="-0.06604">
        <ele>197.41</ele>
        <time>2020-12-19T13:29:26Z</time>
      </trkpt>
      <trkpt lat="48.23016" lon="-0.06623">
        <ele>200</ele>
      </trkpt>
      <trkpt lat="48.23033" lon="-0.06623">
        <ele>190.41</ele>
        <time>2020-12-19T13:29:57Z</time>
      </trkpt>
      <trkpt lat="48.23062" lon="-0.06619">
        <ele>193.41</ele>
        <time>2020-12-19T13:30:27Z</time>
      </trkpt>
      <trkpt lat="48.23087" lon="-0.06612">
        <ele>194.41</ele>
        <time>2020-12-19T13:30:58Z</time>
      </trkpt>
      <trkpt lat="48.2312" lon="-0.06608">
        <ele>199.41</ele>
        <time>2020-12-19T13:31:28Z</time>
      </trkpt>
      <trkpt lat="48.23146" lon="-0.06634">
        <ele>188.41</ele>
        <time>2020-12-19T13:31:58Z</time>
      </trkpt>
      <trkpt lat="48.23173" lon="-0.06657">
        <ele>186.41</ele>
        <time>2020-12-19T13:32:29Z</time>
      </trkpt>
      <trkpt lat="48.23189" lon="-0.06683">
        <ele>194.41</ele>
        <time>2020-12-19T13:32:59Z</time>
      </trkpt>
      <trkpt lat="48.23213" lon="-0.06726">
        <ele>195.41</ele>
        <time>2020-12-19T13:33:30Z</time>
      </trkpt>
      <trkpt lat="48.2323" lon="-0.06764">
        <ele>187.41</ele>
        <time>2020-12-19T13:34:00Z</time>
      </trkpt>
      <trkpt lat="48.23244" lon="-0.06801">
        <ele>192.41</ele>
        <time>2020-12-19T13:34:31Z</time>
      </trkpt>
      <trkpt lat="48.2325" lon="-0.06841">
        <ele>195.41</ele>
        <time>2020-12-19T13:35:02Z</time>
      </trkpt>
      <trkpt lat="48.23253" lon="-0.0687">
        <ele>191.41</ele>
        <time>2020-12-19T13:35:32Z</time>
      </trkpt>
      <trkpt lat="48.23261" lon="-0.06901">
        <ele>194.41</ele>
        <time>2020-12-19T13:36:03Z</time>
      </trkpt>
      <trkpt lat="48.23265" lon="-0.06926">
        <ele>191.41</ele>
        <time>2020-12-19T13:36:34Z</time>
      </trkpt>
      <trkpt lat="48.23251" lon="-0.06947">
        <ele>191.41</ele>
        <time>2020-12-19T13:37:05Z</time>
      </trkpt>
      <trkpt lat="48.23247" lon="-0.06956">
        <ele>184.41</ele>
        <time>2020-12-19T13:37:35Z</time>
      </trkpt>
      <trkpt lat="48.2325" lon="-0.06953">
        <ele>183.41</ele>
        <time>2020-12-19T13:38:06Z</time>
      </trkpt>
      <trkpt lat="48.23245" lon="-0.0695">
        <ele>183.41</ele>
        <time>2020-12-19T13:38:36Z</time>
      </trkpt>
      <trkpt lat="48.23241" lon="-0.06943">
        <ele>183.41</ele>
        <time>2020-12-19T13:39:07Z</time>
      </trkpt>
      <trkpt lat="48.2324" lon="-0.06941">
        <ele>184.41</ele>
        <time>2020-12-19T13:39:38Z</time>
      </trkpt>
      <trkpt lat="48.23247" lon="-0.06939">
        <ele>183.41</ele>
        <time>2020-12-19T13:40:08Z</time>
      </trkpt>
      <trkpt lat="48.23259" lon="-0.0692">
        <ele>187.41</ele>
        <time>2020-12-19T13:40:39Z</time>
      </trkpt>
      <trkpt lat="48.23276" lon="-0.06919">
        <ele>193.8</ele>
      </trkpt>
      <trkpt lat="48.23284" lon="-0.06884">
        <ele>199.2</ele>
      </trkpt>
      <trkpt lat="48.23283" lon="-0.06846">
        <ele>202.41</ele>
        <time>2020-12-19T13:42:11Z</time>
      </trkpt>
      <trkpt lat="48.23292" lon="-0.06831">
        <ele>206.8</ele>
      </trkpt>
      <trkpt lat="48.23294" lon="-0.06807">
        <ele>205.41</ele>
        <time>2020-12-19T13:42:42Z</time>
      </trkpt>
      <trkpt lat="48.2329" lon="-0.06763">
        <ele>207.41</ele>
        <time>2020-12-19T13:43:14Z</time>
      </trkpt>
      <trkpt lat="48.23286" lon="-0.06707">
        <ele>215.41</ele>
        <time>2020-12-19T13:43:44Z</time>
      </trkpt>
      <trkpt lat="48.23286" lon="-0.06667">
        <ele>214.41</ele>
        <time>2020-12-19T13:44:14Z</time>
      </trkpt>
      <trkpt lat="48.23283" lon="-0.06618">
        <ele>215.41</ele>
        <time>2020-12-19T13:44:44Z</time>
      </trkpt>
      <trkpt lat="48.23279" lon="-0.06588">
        <ele>227.41</ele>
        <time>2020-12-19T13:45:14Z</time>
      </trkpt>
      <trkpt lat="48.23281" lon="-0.06577">
        <ele>220.41</ele>
        <time>2020-12-19T13:45:45Z</time>
      </trkpt>
      <trkpt lat="48.23288" lon="-0.06544">
        <ele>213.41</ele>
        <time>2020-12-19T13:46:16Z</time>
      </trkpt>
      <trkpt lat="48.23287" lon="-0.06476">
        <ele>210.41</ele>
        <time>2020-12-19T13:46:47Z</time>
      </trkpt>
      <trkpt lat="48.23295" lon="-0.0643">
        <ele>212.41</ele>
        <time>2020-12-19T13:47:18Z</time>
      </trkpt>
      <trkpt lat="48.23299" lon="-0.06382">
        <ele>215.41</ele>
        <time>2020-12-19T13:47:49Z</time>
      </trkpt>
      <trkpt lat="48.23327" lon="-0.06385">
        <ele>214.41</ele>
        <time>2020-12-19T13:48:20Z</time>
      </trkpt>
      <trkpt lat="48.23351" lon="-0.06401">
        <ele>216.41</ele>
        <time>2020-12-19T13:48:50Z</time>
      </trkpt>
      <trkpt lat="48.23381" lon="-0.06416">
        <ele>214.41</ele>
        <time>2020-12-19T13:49:21Z</time>
      </trkpt>
      <trkpt lat="48.23415" lon="-0.06437">
        <ele>212.41</ele>
        <time>2020-12-19T13:49:51Z</time>
      </trkpt>
      <trkpt lat="48.23442" lon="-0.06452">
        <ele>219.41</ele>
        <time>2020-12-19T13:50:21Z</time>
      </trkpt>
      <trkpt lat="48.23474" lon="-0.06471">
        <ele>215.41</ele>
        <time>2020-12-19T13:50:52Z</time>
      </trkpt>
      <trkpt lat="48.23507" lon="-0.06495">
        <ele>210.41</ele>
        <time>2020-12-19T13:51:23Z</time>
      </trkpt>
      <trkpt lat="48.23531" lon="-0.06515">
        <ele>209.41</ele>
        <time>2020-12-19T13:51:54Z</time>
      </trkpt>
      <trkpt lat="48.23556" lon="-0.06513">
        <ele>204.41</ele>
        <time>2020-12-19T13:52:24Z</time>
      </trkpt>
      <trkpt lat="48.23585" lon="-0.06481">
        <ele>193.41</ele>
        <time>2020-12-19T13:52:55Z</time>
      </trkpt>
      <trkpt lat="48.23615" lon="-0.06447">
        <ele>192.41</ele>
        <time>2020-12-19T13:53:26Z</time>
      </trkpt>
      <trkpt lat="48.23636" lon="-0.06414">
        <ele>195.41</ele>
        <time>2020-12-19T13:53:56Z</time>
      </trkpt>
      <trkpt lat="48.23659" lon="-0.06376">
        <ele>210.41</ele>
        <time>2020-12-19T13:54:27Z</time>
      </trkpt>
      <trkpt lat="48.23692" lon="-0.06358">
        <ele>217.41</ele>
        <time>2020-12-19T13:54:58Z</time>
      </trkpt>
      <trkpt lat="48.23727" lon="-0.06355">
        <ele>215.41</ele>
        <time>2020-12-19T13:55:29Z</time>
      </trkpt>
      <trkpt lat="48.23752" lon="-0.0634">
        <ele>218.41</ele>
        <time>2020-12-19T13:55:59Z</time>
      </trkpt>
      <trkpt lat="48.23782" lon="-0.06326">
        <ele>212.41</ele>
        <time>2020-12-19T13:56:30Z</time>
      </trkpt>
      <trkpt lat="48.23811" lon="-0.06303">
        <ele>204.41</ele>
        <time>2020-12-19T13:57:01Z</time>
      </trkpt>
      <trkpt lat="48.23839" lon="-0.06276">
        <ele>196.41</ele>
        <time>2020-12-19T13:57:31Z</time>
      </trkpt>
      <trkpt lat="48.23859" lon="-0.0624">
        <ele>197.41</ele>
        <time>2020-12-19T13:58:02Z</time>
      </trkpt>
      <trkpt lat="48.23855" lon="-0.06199">
        <ele>195.41</ele>
        <time>2020-12-19T13:58:32Z</time>
      </trkpt>
      <trkpt lat="48.2387" lon="-0.06151">
        <ele>197.41</ele>
        <time>2020-12-19T13:59:03Z</time>
      </trkpt>
      <trkpt lat="48.23884" lon="-0.06104">
        <ele>197.41</ele>
        <time>2020-12-19T13:59:34Z</time>
      </trkpt>
      <trkpt lat="48.23887" lon="-0.06055">
        <ele>200.41</ele>
        <time>2020-12-19T14:00:04Z</time>
      </trkpt>
      <trkpt lat="48.23906" lon="-0.06003">
        <ele>202.41</ele>
        <time>2020-12-19T14:00:35Z</time>
      </trkpt>
      <trkpt lat="48.23915" lon="-0.05963">
        <ele>202.41</ele>
        <time>2020-12-19T14:01:07Z</time>
      </trkpt>
      <trkpt lat="48.23931" lon="-0.05922">
        <ele>200.41</ele>
        <time>2020-12-19T14:01:37Z</time>
      </trkpt>
      <trkpt lat="48.23945" lon="-0.05914">
        <ele>201.41</ele>
        <time>2020-12-19T14:02:07Z</time>
      </trkpt>
      <trkpt lat="48.23957" lon="-0.05886">
        <ele>192.41</ele>
        <time>2020-12-19T14:02:37Z</time>
      </trkpt>
      <trkpt lat="48.23978" lon="-0.05849">
        <ele>189.41</ele>
        <time>2020-12-19T14:03:08Z</time>
      </trkpt>
      <trkpt lat="48.24004" lon="-0.05818">
        <ele>199.41</ele>
        <time>2020-12-19T14:03:38Z</time>
      </trkpt>
      <trkpt lat="48.24034" lon="-0.05796">
        <ele>190.41</ele>
        <time>2020-12-19T14:04:09Z</time>
      </trkpt>
      <trkpt lat="48.24053" lon="-0.05756">
        <ele>184.41</ele>
        <time>2020-12-19T14:04:39Z</time>
      </trkpt>
      <trkpt lat="48.24071" lon="-0.05712">
        <ele>185.41</ele>
        <time>2020-12-19T14:05:10Z</time>
      </trkpt>
      <trkpt lat="48.24084" lon="-0.05666">
        <ele>189.41</ele>
        <time>2020-12-19T14:05:41Z</time>
      </trkpt>
      <trkpt lat="48.241" lon="-0.05619">
        <ele>193.41</ele>
        <time>2020-12-19T14:06:11Z</time>
      </trkpt>
      <trkpt lat="48.24112" lon="-0.05572">
        <ele>196.41</ele>
        <time>2020-12-19T14:06:41Z</time>
      </trkpt>
      <trkpt lat="48.24122" lon="-0.05522">
        <ele>198.41</ele>
        <time>2020-12-19T14:07:12Z</time>
      </trkpt>
      <trkpt lat="48.24134" lon="-0.05524">
        <ele>196.41</ele>
        <time>2020-12-19T14:07:42Z</time>
      </trkpt>
      <trkpt lat="48.24159" lon="-0.05535">
        <ele>201.41</ele>
        <time>2020-12-19T14:08:12Z</time>
      </trkpt>
      <trkpt lat="48.24185" lon="-0.05548">
        <ele>200.41</ele>
        <time>2020-12-19T14:08:43Z</time>
      </trkpt>
      <trkpt lat="48.24218" lon="-0.05569">
        <ele>202.41</ele>
        <time>2020-12-19T14:09:14Z</time>
      </trkpt>
      <trkpt lat="48.24248" lon="-0.05584">
        <ele>206.41</ele>
        <time>2020-12-19T14:09:44Z</time>
      </trkpt>
      <trkpt lat="48.24273" lon="-0.05604">
        <ele>199.41</ele>
        <time>2020-12-19T14:10:14Z</time>
      </trkpt>
      <trkpt lat="48.24305" lon="-0.0562">
        <ele>201.41</ele>
        <time>2020-12-19T14:10:45Z</time>
      </trkpt>
      <trkpt lat="48.24328" lon="-0.05633">
        <ele>196.41</ele>
        <time>2020-12-19T14:11:16Z</time>
      </trkpt>
      <trkpt lat="48.24358" lon="-0.05657">
        <ele>192.41</ele>
        <time>2020-12-19T14:11:46Z</time>
      </trkpt>
      <trkpt lat="48.24388" lon="-0.05676">
        <ele>187.41</ele>
        <time>2020-12-19T14:12:16Z</time>
      </trkpt>
      <trkpt lat="48.24423" lon="-0.057">
        <ele>185.41</ele>
        <time>2020-12-19T14:12:47Z</time>
      </trkpt>
      <trkpt lat="48.24449" lon="-0.05715">
        <ele>183.41</ele>
        <time>2020-12-19T14:13:18Z</time>
      </trkpt>
      <trkpt lat="48.24472" lon="-0.05737">
        <ele>172.41</ele>
        <time>2020-12-19T14:13:49Z</time>
      </trkpt>
      <trkpt lat="48.24475" lon="-0.05743">
        <ele>171.41</ele>
        <time>2020-12-19T14:14:20Z</time>
      </trkpt>
      <trkpt lat="48.24475" lon="-0.05743">
        <ele>171.41</ele>
        <time>2020-12-19T14:14:51Z</time>
      </trkpt>
      <trkpt lat="48.24453" lon="-0.05769">
        <ele>169.41</ele>
        <time>2020-12-19T14:15:21Z</time>
      </trkpt>
      <trkpt lat="48.24454" lon="-0.05773">
        <ele>170.41</ele>
        <time>2020-12-19T14:15:53Z</time>
      </trkpt>
      <trkpt lat="48.24442" lon="-0.05795">
        <ele>168.41</ele>
        <time>2020-12-19T14:16:23Z</time>
      </trkpt>
      <trkpt lat="48.24423" lon="-0.05818">
        <ele>162.41</ele>
        <time>2020-12-19T14:16:53Z</time>
      </trkpt>
      <trkpt lat="48.24398" lon="-0.05859">
        <ele>166.41</ele>
        <time>2020-12-19T14:17:23Z</time>
      </trkpt>
      <trkpt lat="48.24385" lon="-0.05879">
        <ele>165.41</ele>
        <time>2020-12-19T14:17:54Z</time>
      </trkpt>
      <trkpt lat="48.24365" lon="-0.05905">
        <ele>160.41</ele>
        <time>2020-12-19T14:18:24Z</time>
      </trkpt>
      <trkpt lat="48.24347" lon="-0.05934">
        <ele>155.41</ele>
        <time>2020-12-19T14:18:55Z</time>
      </trkpt>
      <trkpt lat="48.24328" lon="-0.0597">
        <ele>152.41</ele>
        <time>2020-12-19T14:19:26Z</time>
      </trkpt>
      <trkpt lat="48.24312" lon="-0.06005">
        <ele>144.41</ele>
        <time>2020-12-19T14:19:56Z</time>
      </trkpt>
      <trkpt lat="48.24314" lon="-0.06063">
        <ele>155.41</ele>
        <time>2020-12-19T14:20:27Z</time>
      </trkpt>
      <trkpt lat="48.24332" lon="-0.06088">
        <ele>155.41</ele>
        <time>2020-12-19T14:20:57Z</time>
      </trkpt>
      <trkpt lat="48.24347" lon="-0.06118">
        <ele>158.41</ele>
        <time>2020-12-19T14:21:27Z</time>
      </trkpt>
      <trkpt lat="48.24374" lon="-0.06143">
        <ele>162.41</ele>
        <time>2020-12-19T14:21:58Z</time>
      </trkpt>
      <trkpt lat="48.24408" lon="-0.06161">
        <ele>162.41</ele>
        <time>2020-12-19T14:22:28Z</time>
      </trkpt>
      <trkpt lat="48.24436" lon="-0.06191">
        <ele>161.41</ele>
        <time>2020-12-19T14:22:58Z</time>
      </trkpt>
      <trkpt lat="48.24453" lon="-0.0622">
        <ele>152.41</ele>
        <time>2020-12-19T14:23:29Z</time>
      </trkpt>
      <trkpt lat="48.24459" lon="-0.06274">
        <ele>160.41</ele>
        <time>2020-12-19T14:24:00Z</time>
      </trkpt>
      <trkpt lat="48.24458" lon="-0.06325">
        <ele>157.41</ele>
        <time>2020-12-19T14:24:31Z</time>
      </trkpt>
      <trkpt lat="48.24487" lon="-0.06371">
        <ele>158.41</ele>
        <time>2020-12-19T14:25:02Z</time>
      </trkpt>
      <trkpt lat="48.2451" lon="-0.06398">
        <ele>160.41</ele>
        <time>2020-12-19T14:25:32Z</time>
      </trkpt>
      <trkpt lat="48.24536" lon="-0.06425">
        <ele>154.41</ele>
        <time>2020-12-19T14:26:02Z</time>
      </trkpt>
      <trkpt lat="48.24561" lon="-0.0645">
        <ele>153.41</ele>
        <time>2020-12-19T14:26:33Z</time>
      </trkpt>
      <trkpt lat="48.24585" lon="-0.06466">
        <ele>143.41</ele>
        <time>2020-12-19T14:27:03Z</time>
      </trkpt>
      <trkpt lat="48.2462" lon="-0.06495">
        <ele>145.41</ele>
        <time>2020-12-19T14:27:34Z</time>
      </trkpt>
      <trkpt lat="48.24643" lon="-0.06521">
        <ele>148.41</ele>
        <time>2020-12-19T14:28:04Z</time>
      </trkpt>
      <trkpt lat="48.24667" lon="-0.06553">
        <ele>143.41</ele>
        <time>2020-12-19T14:28:34Z</time>
      </trkpt>
      <trkpt lat="48.2469" lon="-0.06589">
        <ele>149.41</ele>
        <time>2020-12-19T14:29:05Z</time>
      </trkpt>
      <trkpt lat="48.247" lon="-0.06621">
        <ele>139.41</ele>
        <time>2020-12-19T14:29:36Z</time>
      </trkpt>
      <trkpt lat="48.24678" lon="-0.06662">
        <ele>126.41</ele>
        <time>2020-12-19T14:30:06Z</time>
      </trkpt>
      <trkpt lat="48.24664" lon="-0.06697">
        <ele>127.41</ele>
        <time>2020-12-19T14:30:37Z</time>
      </trkpt>
      <trkpt lat="48.24643" lon="-0.06728">
        <ele>120.41</ele>
        <time>2020-12-19T14:31:08Z</time>
      </trkpt>
      <trkpt lat="48.24619" lon="-0.0677">
        <ele>116.41</ele>
        <time>2020-12-19T14:31:39Z</time>
      </trkpt>
      <trkpt lat="48.24616" lon="-0.06811">
        <ele>110.41</ele>
        <time>2020-12-19T14:32:10Z</time>
      </trkpt>
      <trkpt lat="48.24633" lon="-0.06838">
        <ele>113.41</ele>
        <time>2020-12-19T14:32:41Z</time>
      </trkpt>
      <trkpt lat="48.24659" lon="-0.06868">
        <ele>118.41</ele>
        <time>2020-12-19T14:33:11Z</time>
      </trkpt>
      <trkpt lat="48.24665" lon="-0.0692">
        <ele>113.41</ele>
        <time>2020-12-19T14:33:43Z</time>
      </trkpt>
      <trkpt lat="48.24687" lon="-0.06949">
        <ele>115.41</ele>
        <time>2020-12-19T14:34:14Z</time>
      </trkpt>
      <trkpt lat="48.24699" lon="-0.06952">
        <ele>114.3</ele>
      </trkpt>
      <trkpt lat="48.24713" lon="-0.06951">
        <ele>113.7</ele>
      </trkpt>
      <trkpt lat="48.2475" lon="-0.06921">
        <ele>108.41</ele>
        <time>2020-12-19T14:35:15Z</time>
      </trkpt>
      <trkpt lat="48.24764" lon="-0.06882">
        <ele>114.7</ele>
      </trkpt>
      <trkpt lat="48.24793" lon="-0.06839">
        <ele>110.41</ele>
        <time>2020-12-19T14:36:15Z</time>
      </trkpt>
      <trkpt lat="48.24823" lon="-0.06795">
        <ele>118.41</ele>
        <time>2020-12-19T14:36:46Z</time>
      </trkpt>
      <trkpt lat="48.24848" lon="-0.06759">
        <ele>119.41</ele>
        <time>2020-12-19T14:37:16Z</time>
      </trkpt>
      <trkpt lat="48.24875" lon="-0.06728">
        <ele>114.41</ele>
        <time>2020-12-19T14:37:47Z</time>
      </trkpt>
      <trkpt lat="48.24905" lon="-0.06714">
        <ele>115.41</ele>
        <time>2020-12-19T14:38:17Z</time>
      </trkpt>
      <trkpt lat="48.24937" lon="-0.06705">
        <ele>113.41</ele>
        <time>2020-12-19T14:38:48Z</time>
      </trkpt>
      <trkpt lat="48.24972" lon="-0.06695">
        <ele>112.41</ele>
        <time>2020-12-19T14:39:21Z</time>
      </trkpt>
      <trkpt lat="48.25009" lon="-0.06669">
        <ele>117.43</ele>
        <time>2020-12-19T14:39:54Z</time>
      </trkpt>
      <trkpt lat="48.25017" lon="-0.06668">
        <ele>113.43</ele>
        <time>2020-12-19T14:40:24Z</time>
      </trkpt>
      <trkpt lat="48.25017" lon="-0.06668">
        <ele>113.43</ele>
        <time>2020-12-19T14:40:54Z</time>
      </trkpt>
      <trkpt lat="48.25012" lon="-0.0667">
        <ele>114.43</ele>
        <time>2020-12-19T14:41:25Z</time>
      </trkpt>
      <trkpt lat="48.25025" lon="-0.06663">
        <ele>114.43</ele>
        <time>2020-12-19T14:41:55Z</time>
      </trkpt>
      <trkpt lat="48.25053" lon="-0.06648">
        <ele>113.43</ele>
        <time>2020-12-19T14:42:25Z</time>
      </trkpt>
      <trkpt lat="48.25066" lon="-0.06708">
        <ele>108.5</ele>
      </trkpt>
      <trkpt lat="48.25072" lon="-0.0673">
        <ele>108.2</ele>
      </trkpt>
      <trkpt lat="48.25084" lon="-0.06746">
        <ele>108</ele>
      </trkpt>
      <trkpt lat="48.25114" lon="-0.06768">
        <ele>111.7</ele>
      </trkpt>
      <trkpt lat="48.25122" lon="-0.06791">
        <ele>115.2</ele>
      </trkpt>
      <trkpt lat="48.25108" lon="-0.06762">
        <ele>110.7</ele>
      </trkpt>
      <trkpt lat="48.2507" lon="-0.0673">
        <ele>108.3</ele>
      </trkpt>
      <trkpt lat="48.25066" lon="-0.06715">
        <ele>108.4</ele>
      </trkpt>
      <trkpt lat="48.25056" lon="-0.06651">
        <ele>111.43</ele>
        <time>2020-12-19T14:43:27Z</time>
      </trkpt>
      <trkpt lat="48.25029" lon="-0.06661">
        <ele>98.43</ele>
        <time>2020-12-19T14:43:58Z</time>
      </trkpt>
      <trkpt lat="48.25004" lon="-0.06674">
        <ele>111.43</ele>
        <time>2020-12-19T14:44:28Z</time>
      </trkpt>
      <trkpt lat="48.24993" lon="-0.06681">
        <ele>109.41</ele>
        <time>2020-12-19T14:44:58Z</time>
      </trkpt>
      <trkpt lat="48.24967" lon="-0.06698">
        <ele>106.41</ele>
        <time>2020-12-19T14:45:30Z</time>
      </trkpt>
      <trkpt lat="48.24929" lon="-0.06711">
        <ele>115.6</ele>
      </trkpt>
      <trkpt lat="48.24909" lon="-0.06714">
        <ele>116.5</ele>
      </trkpt>
      <trkpt lat="48.24892" lon="-0.06724">
        <ele>114.41</ele>
        <time>2020-12-19T14:46:31Z</time>
      </trkpt>
      <trkpt lat="48.24863" lon="-0.06743">
        <ele>112.41</ele>
        <time>2020-12-19T14:47:02Z</time>
      </trkpt>
      <trkpt lat="48.24839" lon="-0.0677">
        <ele>117.41</ele>
        <time>2020-12-19T14:47:33Z</time>
      </trkpt>
      <trkpt lat="48.24806" lon="-0.06813">
        <ele>121.41</ele>
        <time>2020-12-19T14:48:05Z</time>
      </trkpt>
      <trkpt lat="48.24785" lon="-0.06849">
        <ele>120.41</ele>
        <time>2020-12-19T14:48:35Z</time>
      </trkpt>
      <trkpt lat="48.24764" lon="-0.06884">
        <ele>111.41</ele>
        <time>2020-12-19T14:49:05Z</time>
      </trkpt>
      <trkpt lat="48.24744" lon="-0.06929">
        <ele>113.41</ele>
        <time>2020-12-19T14:49:37Z</time>
      </trkpt>
      <trkpt lat="48.24713" lon="-0.06952">
        <ele>113.7</ele>
      </trkpt>
      <trkpt lat="48.24689" lon="-0.06948">
        <ele>113.41</ele>
        <time>2020-12-19T14:50:38Z</time>
      </trkpt>
      <trkpt lat="48.24669" lon="-0.06948">
        <ele>115.6</ele>
      </trkpt>
      <trkpt lat="48.24652" lon="-0.06959">
        <ele>116</ele>
      </trkpt>
      <trkpt lat="48.24633" lon="-0.06974">
        <ele>116.7</ele>
      </trkpt>
      <trkpt lat="48.24621" lon="-0.07001">
        <ele>117.2</ele>
      </trkpt>
      <trkpt lat="48.24607" lon="-0.07037">
        <ele>118.7</ele>
      </trkpt>
      <trkpt lat="48.24586" lon="-0.07085">
        <ele>121.8</ele>
      </trkpt>
      <trkpt lat="48.24557" lon="-0.07074">
        <ele>120.41</ele>
        <time>2020-12-19T14:53:12Z</time>
      </trkpt>
      <trkpt lat="48.24522" lon="-0.07055">
        <ele>117.41</ele>
        <time>2020-12-19T14:53:42Z</time>
      </trkpt>
      <trkpt lat="48.2449" lon="-0.07037">
        <ele>121.41</ele>
        <time>2020-12-19T14:54:12Z</time>
      </trkpt>
      <trkpt lat="48.24455" lon="-0.07019">
        <ele>120.41</ele>
        <time>2020-12-19T14:54:43Z</time>
      </trkpt>
      <trkpt lat="48.24429" lon="-0.06995">
        <ele>127.41</ele>
        <time>2020-12-19T14:55:13Z</time>
      </trkpt>
      <trkpt lat="48.244" lon="-0.0696">
        <ele>127.41</ele>
        <time>2020-12-19T14:55:44Z</time>
      </trkpt>
      <trkpt lat="48.24383" lon="-0.06952">
        <ele>129.2</ele>
      </trkpt>
      <trkpt lat="48.24367" lon="-0.06956">
        <ele>131.41</ele>
        <time>2020-12-19T14:56:15Z</time>
      </trkpt>
      <trkpt lat="48.24334" lon="-0.06955">
        <ele>125.41</ele>
        <time>2020-12-19T14:56:45Z</time>
      </trkpt>
      <trkpt lat="48.24301" lon="-0.06951">
        <ele>128.41</ele>
        <time>2020-12-19T14:57:16Z</time>
      </trkpt>
      <trkpt lat="48.24265" lon="-0.06949">
        <ele>129.41</ele>
        <time>2020-12-19T14:57:46Z</time>
      </trkpt>
      <trkpt lat="48.24231" lon="-0.06955">
        <ele>137.41</ele>
        <time>2020-12-19T14:58:17Z</time>
      </trkpt>
      <trkpt lat="48.24195" lon="-0.06966">
        <ele>137.41</ele>
        <time>2020-12-19T14:58:48Z</time>
      </trkpt>
      <trkpt lat="48.24164" lon="-0.06975">
        <ele>136.41</ele>
        <time>2020-12-19T14:59:18Z</time>
      </trkpt>
      <trkpt lat="48.24126" lon="-0.06967">
        <ele>138.41</ele>
        <time>2020-12-19T14:59:48Z</time>
      </trkpt>
      <trkpt lat="48.24099" lon="-0.06931">
        <ele>137.41</ele>
        <time>2020-12-19T15:00:19Z</time>
      </trkpt>
      <trkpt lat="48.24084" lon="-0.06903">
        <ele>139.41</ele>
        <time>2020-12-19T15:00:49Z</time>
      </trkpt>
      <trkpt lat="48.24066" lon="-0.06876">
        <ele>136.41</ele>
        <time>2020-12-19T15:01:20Z</time>
      </trkpt>
      <trkpt lat="48.24045" lon="-0.0684">
        <ele>140.41</ele>
        <time>2020-12-19T15:01:51Z</time>
      </trkpt>
      <trkpt lat="48.2403" lon="-0.06807">
        <ele>146.41</ele>
        <time>2020-12-19T15:02:21Z</time>
      </trkpt>
      <trkpt lat="48.24006" lon="-0.06777">
        <ele>145.41</ele>
        <time>2020-12-19T15:02:52Z</time>
      </trkpt>
      <trkpt lat="48.23989" lon="-0.06744">
        <ele>144.41</ele>
        <time>2020-12-19T15:03:22Z</time>
      </trkpt>
      <trkpt lat="48.23965" lon="-0.06713">
        <ele>147.41</ele>
        <time>2020-12-19T15:03:52Z</time>
      </trkpt>
      <trkpt lat="48.23943" lon="-0.06691">
        <ele>146.41</ele>
        <time>2020-12-19T15:04:22Z</time>
      </trkpt>
      <trkpt lat="48.23915" lon="-0.06663">
        <ele>152.41</ele>
        <time>2020-12-19T15:04:53Z</time>
      </trkpt>
      <trkpt lat="48.23883" lon="-0.06639">
        <ele>156.41</ele>
        <time>2020-12-19T15:05:23Z</time>
      </trkpt>
      <trkpt lat="48.23849" lon="-0.0663">
        <ele>162.41</ele>
        <time>2020-12-19T15:05:54Z</time>
      </trkpt>
      <trkpt lat="48.23841" lon="-0.06627">
        <ele>171.7</ele>
      </trkpt>
      <trkpt lat="48.23837" lon="-0.06626">
        <ele>171.8</ele>
      </trkpt>
      <trkpt lat="48.23835" lon="-0.06627">
        <ele>171.7</ele>
      </trkpt>
      <trkpt lat="48.23836" lon="-0.06628">
        <ele>171.5</ele>
      </trkpt>
      <trkpt lat="48.2384" lon="-0.06629">
        <ele>171.4</ele>
      </trkpt>
      <trkpt lat="48.23836" lon="-0.06626">
        <ele>167.41</ele>
        <time>2020-12-19T15:08:26Z</time>
      </trkpt>
      <trkpt lat="48.23807" lon="-0.06652">
        <ele>175.41</ele>
        <time>2020-12-19T15:08:56Z</time>
      </trkpt>
      <trkpt lat="48.23778" lon="-0.06675">
        <ele>169.41</ele>
        <time>2020-12-19T15:09:26Z</time>
      </trkpt>
      <trkpt lat="48.23769" lon="-0.06685">
        <ele>169.41</ele>
        <time>2020-12-19T15:09:57Z</time>
      </trkpt>
      <trkpt lat="48.23747" lon="-0.06725">
        <ele>173.41</ele>
        <time>2020-12-19T15:10:27Z</time>
      </trkpt>
      <trkpt lat="48.23743" lon="-0.06745">
        <ele>166.41</ele>
        <time>2020-12-19T15:10:58Z</time>
      </trkpt>
      <trkpt lat="48.2373" lon="-0.06794">
        <ele>169.41</ele>
        <time>2020-12-19T15:11:28Z</time>
      </trkpt>
      <trkpt lat="48.23722" lon="-0.0684">
        <ele>160.41</ele>
        <time>2020-12-19T15:11:58Z</time>
      </trkpt>
      <trkpt lat="48.23711" lon="-0.06897">
        <ele>156.41</ele>
        <time>2020-12-19T15:12:29Z</time>
      </trkpt>
      <trkpt lat="48.23689" lon="-0.06938">
        <ele>155.41</ele>
        <time>2020-12-19T15:13:00Z</time>
      </trkpt>
      <trkpt lat="48.23666" lon="-0.06971">
        <ele>149.41</ele>
        <time>2020-12-19T15:13:31Z</time>
      </trkpt>
      <trkpt lat="48.23653" lon="-0.07003">
        <ele>151.41</ele>
        <time>2020-12-19T15:14:01Z</time>
      </trkpt>
      <trkpt lat="48.23635" lon="-0.07033">
        <ele>150.41</ele>
        <time>2020-12-19T15:14:32Z</time>
      </trkpt>
      <trkpt lat="48.23616" lon="-0.07067">
        <ele>150.41</ele>
        <time>2020-12-19T15:15:03Z</time>
      </trkpt>
      <trkpt lat="48.23602" lon="-0.07088">
        <ele>149.41</ele>
        <time>2020-12-19T15:15:34Z</time>
      </trkpt>
      <trkpt lat="48.23602" lon="-0.07124">
        <ele>150.41</ele>
        <time>2020-12-19T15:16:04Z</time>
      </trkpt>
      <trkpt lat="48.23598" lon="-0.07169">
        <ele>150.41</ele>
        <time>2020-12-19T15:16:34Z</time>
      </trkpt>
      <trkpt lat="48.23596" lon="-0.07179">
        <ele>147.41</ele>
        <time>2020-12-19T15:17:05Z</time>
      </trkpt>
      <trkpt lat="48.23598" lon="-0.07209">
        <ele>150.41</ele>
        <time>2020-12-19T15:17:36Z</time>
      </trkpt>
      <trkpt lat="48.23605" lon="-0.07228">
        <ele>153.41</ele>
        <time>2020-12-19T15:18:06Z</time>
      </trkpt>
      <trkpt lat="48.23625" lon="-0.07256">
        <ele>159.41</ele>
        <time>2020-12-19T15:18:36Z</time>
      </trkpt>
      <trkpt lat="48.23644" lon="-0.07294">
        <ele>154.41</ele>
        <time>2020-12-19T15:19:06Z</time>
      </trkpt>
      <trkpt lat="48.23656" lon="-0.07324">
        <ele>162.41</ele>
        <time>2020-12-19T15:19:38Z</time>
      </trkpt>
      <trkpt lat="48.23667" lon="-0.07351">
        <ele>161.41</ele>
        <time>2020-12-19T15:20:08Z</time>
      </trkpt>
      <trkpt lat="48.23681" lon="-0.07393">
        <ele>162.41</ele>
        <time>2020-12-19T15:20:39Z</time>
      </trkpt>
      <trkpt lat="48.23698" lon="-0.07424">
        <ele>161.41</ele>
        <time>2020-12-19T15:21:09Z</time>
      </trkpt>
      <trkpt lat="48.23704" lon="-0.07444">
        <ele>156.41</ele>
        <time>2020-12-19T15:21:40Z</time>
      </trkpt>
      <trkpt lat="48.23722" lon="-0.07489">
        <ele>140.41</ele>
        <time>2020-12-19T15:22:11Z</time>
      </trkpt>
      <trkpt lat="48.23746" lon="-0.07536">
        <ele>135.41</ele>
        <time>2020-12-19T15:22:42Z</time>
      </trkpt>
      <trkpt lat="48.23787" lon="-0.07586">
        <ele>152.41</ele>
        <time>2020-12-19T15:23:13Z</time>
      </trkpt>
      <trkpt lat="48.23799" lon="-0.07589">
        <ele>160.41</ele>
        <time>2020-12-19T15:23:43Z</time>
      </trkpt>
      <trkpt lat="48.23803" lon="-0.07592">
        <ele>161.41</ele>
        <time>2020-12-19T15:24:13Z</time>
      </trkpt>
      <trkpt lat="48.23818" lon="-0.07624">
        <ele>160.41</ele>
        <time>2020-12-19T15:24:44Z</time>
      </trkpt>
      <trkpt lat="48.23834" lon="-0.07667">
        <ele>153.41</ele>
        <time>2020-12-19T15:25:14Z</time>
      </trkpt>
      <trkpt lat="48.23846" lon="-0.07712">
        <ele>161.41</ele>
        <time>2020-12-19T15:25:44Z</time>
      </trkpt>
      <trkpt lat="48.23853" lon="-0.07772">
        <ele>162.41</ele>
        <time>2020-12-19T15:26:15Z</time>
      </trkpt>
      <trkpt lat="48.23836" lon="-0.07829">
        <ele>162.41</ele>
        <time>2020-12-19T15:26:45Z</time>
      </trkpt>
      <trkpt lat="48.23819" lon="-0.07862">
        <ele>155.41</ele>
        <time>2020-12-19T15:27:16Z</time>
      </trkpt>
      <trkpt lat="48.23804" lon="-0.07908">
        <ele>161.41</ele>
        <time>2020-12-19T15:27:47Z</time>
      </trkpt>
      <trkpt lat="48.23798" lon="-0.0795">
        <ele>162.41</ele>
        <time>2020-12-19T15:28:18Z</time>
      </trkpt>
      <trkpt lat="48.23788" lon="-0.07998">
        <ele>161.41</ele>
        <time>2020-12-19T15:28:48Z</time>
      </trkpt>
      <trkpt lat="48.23773" lon="-0.0804">
        <ele>161.41</ele>
        <time>2020-12-19T15:29:19Z</time>
      </trkpt>
      <trkpt lat="48.23752" lon="-0.08091">
        <ele>164.41</ele>
        <time>2020-12-19T15:29:49Z</time>
      </trkpt>
      <trkpt lat="48.23737" lon="-0.08135">
        <ele>164.41</ele>
        <time>2020-12-19T15:30:20Z</time>
      </trkpt>
      <trkpt lat="48.2372" lon="-0.08179">
        <ele>162.41</ele>
        <time>2020-12-19T15:30:50Z</time>
      </trkpt>
      <trkpt lat="48.23707" lon="-0.08231">
        <ele>169.41</ele>
        <time>2020-12-19T15:31:21Z</time>
      </trkpt>
      <trkpt lat="48.23693" lon="-0.08277">
        <ele>157.41</ele>
        <time>2020-12-19T15:31:52Z</time>
      </trkpt>
      <trkpt lat="48.23679" lon="-0.08321">
        <ele>154.41</ele>
        <time>2020-12-19T15:32:22Z</time>
      </trkpt>
      <trkpt lat="48.23664" lon="-0.0838">
        <ele>157.41</ele>
        <time>2020-12-19T15:32:53Z</time>
      </trkpt>
      <trkpt lat="48.23654" lon="-0.08419">
        <ele>159.41</ele>
        <time>2020-12-19T15:33:23Z</time>
      </trkpt>
      <trkpt lat="48.23648" lon="-0.08471">
        <ele>162.41</ele>
        <time>2020-12-19T15:33:53Z</time>
      </trkpt>
      <trkpt lat="48.23641" lon="-0.0852">
        <ele>166.41</ele>
        <time>2020-12-19T15:34:24Z</time>
      </trkpt>
      <trkpt lat="48.23638" lon="-0.08567">
        <ele>168.41</ele>
        <time>2020-12-19T15:34:55Z</time>
      </trkpt>
      <trkpt lat="48.23629" lon="-0.08617">
        <ele>171.41</ele>
        <time>2020-12-19T15:35:26Z</time>
      </trkpt>
      <trkpt lat="48.23611" lon="-0.08661">
        <ele>168.41</ele>
        <time>2020-12-19T15:35:56Z</time>
      </trkpt>
      <trkpt lat="48.23589" lon="-0.08704">
        <ele>171.41</ele>
        <time>2020-12-19T15:36:26Z</time>
      </trkpt>
      <trkpt lat="48.2357" lon="-0.08714">
        <ele>169.41</ele>
        <time>2020-12-19T15:36:57Z</time>
      </trkpt>
      <trkpt lat="48.23553" lon="-0.08701">
        <ele>167.41</ele>
        <time>2020-12-19T15:37:28Z</time>
      </trkpt>
      <trkpt lat="48.23529" lon="-0.08686">
        <ele>174.41</ele>
        <time>2020-12-19T15:37:58Z</time>
      </trkpt>
      <trkpt lat="48.23502" lon="-0.08673">
        <ele>176.41</ele>
        <time>2020-12-19T15:38:29Z</time>
      </trkpt>
      <trkpt lat="48.23465" lon="-0.08655">
        <ele>183.41</ele>
        <time>2020-12-19T15:38:59Z</time>
      </trkpt>
      <trkpt lat="48.23437" lon="-0.08634">
        <ele>189.41</ele>
        <time>2020-12-19T15:39:29Z</time>
      </trkpt>
      <trkpt lat="48.23408" lon="-0.08615">
        <ele>189.41</ele>
        <time>2020-12-19T15:40:00Z</time>
      </trkpt>
      <trkpt lat="48.23384" lon="-0.08599">
        <ele>194.41</ele>
        <time>2020-12-19T15:40:30Z</time>
      </trkpt>
      <trkpt lat="48.23355" lon="-0.08578">
        <ele>200.41</ele>
        <time>2020-12-19T15:41:00Z</time>
      </trkpt>
      <trkpt lat="48.2332" lon="-0.0855">
        <ele>208.41</ele>
        <time>2020-12-19T15:41:31Z</time>
      </trkpt>
      <trkpt lat="48.23308" lon="-0.08545">
        <ele>202.41</ele>
        <time>2020-12-19T15:42:02Z</time>
      </trkpt>
      <trkpt lat="48.23265" lon="-0.08517">
        <ele>210.41</ele>
        <time>2020-12-19T15:42:33Z</time>
      </trkpt>
      <trkpt lat="48.23246" lon="-0.08505">
        <ele>221.41</ele>
        <time>2020-12-19T15:43:04Z</time>
      </trkpt>
      <trkpt lat="48.23221" lon="-0.08488">
        <ele>224.41</ele>
        <time>2020-12-19T15:43:34Z</time>
      </trkpt>
      <trkpt lat="48.23199" lon="-0.08473">
        <ele>235.41</ele>
        <time>2020-12-19T15:44:05Z</time>
      </trkpt>
      <trkpt lat="48.23175" lon="-0.08457">
        <ele>230.1</ele>
      </trkpt>
      <trkpt lat="48.2315" lon="-0.08442">
        <ele>231.41</ele>
        <time>2020-12-19T15:45:07Z</time>
      </trkpt>
      <trkpt lat="48.23141" lon="-0.08437">
        <ele>230.41</ele>
        <time>2020-12-19T15:45:37Z</time>
      </trkpt>
      <trkpt lat="48.23141" lon="-0.08436">
        <ele>228.41</ele>
        <time>2020-12-19T15:46:08Z</time>
      </trkpt>
      <trkpt lat="48.23137" lon="-0.08436">
        <ele>226.41</ele>
        <time>2020-12-19T15:46:39Z</time>
      </trkpt>
      <trkpt lat="48.23114" lon="-0.08419">
        <ele>231.41</ele>
        <time>2020-12-19T15:47:10Z</time>
      </trkpt>
      <trkpt lat="48.23089" lon="-0.08401">
        <ele>237.41</ele>
        <time>2020-12-19T15:47:41Z</time>
      </trkpt>
      <trkpt lat="48.23061" lon="-0.08379">
        <ele>239.41</ele>
        <time>2020-12-19T15:48:11Z</time>
      </trkpt>
      <trkpt lat="48.2304" lon="-0.0837">
        <ele>235.41</ele>
        <time>2020-12-19T15:48:42Z</time>
      </trkpt>
      <trkpt lat="48.23007" lon="-0.08356">
        <ele>243.41</ele>
        <time>2020-12-19T15:49:12Z</time>
      </trkpt>
      <trkpt lat="48.22975" lon="-0.08337">
        <ele>245.41</ele>
        <time>2020-12-19T15:49:43Z</time>
      </trkpt>
      <trkpt lat="48.22946" lon="-0.08314">
        <ele>245.41</ele>
        <time>2020-12-19T15:50:14Z</time>
      </trkpt>
      <trkpt lat="48.22924" lon="-0.08295">
        <ele>245.41</ele>
        <time>2020-12-19T15:50:45Z</time>
      </trkpt>
      <trkpt lat="48.22906" lon="-0.08285">
        <ele>240.41</ele>
        <time>2020-12-19T15:51:15Z</time>
      </trkpt>
      <trkpt lat="48.22875" lon="-0.0827">
        <ele>240.41</ele>
        <time>2020-12-19T15:51:46Z</time>
      </trkpt>
      <trkpt lat="48.22853" lon="-0.08255">
        <ele>234.41</ele>
        <time>2020-12-19T15:52:16Z</time>
      </trkpt>
      <trkpt lat="48.22832" lon="-0.08237">
        <ele>238.41</ele>
        <time>2020-12-19T15:52:47Z</time>
      </trkpt>
      <trkpt lat="48.22825" lon="-0.08229">
        <ele>232.1</ele>
      </trkpt>
      <trkpt lat="48.22829" lon="-0.08197">
        <ele>232</ele>
      </trkpt>
      <trkpt lat="48.2284" lon="-0.08168">
        <ele>232.7</ele>
      </trkpt>
      <trkpt lat="48.22845" lon="-0.08111">
        <ele>220.41</ele>
        <time>2020-12-19T15:54:19Z</time>
      </trkpt>
      <trkpt lat="48.22848" lon="-0.08066">
        <ele>229</ele>
      </trkpt>
      <trkpt lat="48.22852" lon="-0.08014">
        <ele>227.41</ele>
        <time>2020-12-19T15:55:20Z</time>
      </trkpt>
      <trkpt lat="48.2286" lon="-0.07963">
        <ele>227.41</ele>
        <time>2020-12-19T15:55:51Z</time>
      </trkpt>
      <trkpt lat="48.22871" lon="-0.07918">
        <ele>221.41</ele>
        <time>2020-12-19T15:56:21Z</time>
      </trkpt>
      <trkpt lat="48.22878" lon="-0.07889">
        <ele>213.41</ele>
        <time>2020-12-19T15:56:51Z</time>
      </trkpt>
      <trkpt lat="48.22882" lon="-0.07846">
        <ele>220.41</ele>
        <time>2020-12-19T15:57:22Z</time>
      </trkpt>
      <trkpt lat="48.2289" lon="-0.07806">
        <ele>220.41</ele>
        <time>2020-12-19T15:57:53Z</time>
      </trkpt>
      <trkpt lat="48.22902" lon="-0.07766">
        <ele>218.41</ele>
        <time>2020-12-19T15:58:23Z</time>
      </trkpt>
      <trkpt lat="48.22906" lon="-0.07722">
        <ele>213.41</ele>
        <time>2020-12-19T15:58:54Z</time>
      </trkpt>
      <trkpt lat="48.22909" lon="-0.07676">
        <ele>208.4</ele>
      </trkpt>
      <trkpt lat="48.22914" lon="-0.07655">
        <ele>210.41</ele>
        <time>2020-12-19T15:59:56Z</time>
      </trkpt>
      <trkpt lat="48.22926" lon="-0.07623">
        <ele>200.41</ele>
        <time>2020-12-19T16:00:26Z</time>
      </trkpt>
      <trkpt lat="48.22934" lon="-0.07584">
        <ele>202.41</ele>
        <time>2020-12-19T16:00:56Z</time>
      </trkpt>
      <trkpt lat="48.22949" lon="-0.07555">
        <ele>200.41</ele>
        <time>2020-12-19T16:01:26Z</time>
      </trkpt>
      <trkpt lat="48.22966" lon="-0.07516">
        <ele>194.41</ele>
        <time>2020-12-19T16:01:57Z</time>
      </trkpt>
      <trkpt lat="48.22981" lon="-0.07464">
        <ele>191.41</ele>
        <time>2020-12-19T16:02:27Z</time>
      </trkpt>
      <trkpt lat="48.22994" lon="-0.07422">
        <ele>190.41</ele>
        <time>2020-12-19T16:02:58Z</time>
      </trkpt>
      <trkpt lat="48.23009" lon="-0.07387">
        <ele>187.41</ele>
        <time>2020-12-19T16:03:28Z</time>
      </trkpt>
      <trkpt lat="48.23023" lon="-0.07362">
        <ele>183.41</ele>
        <time>2020-12-19T16:03:59Z</time>
      </trkpt>
      <trkpt lat="48.23038" lon="-0.07337">
        <ele>175.41</ele>
        <time>2020-12-19T16:04:29Z</time>
      </trkpt>
      <trkpt lat="48.23066" lon="-0.07278">
        <ele>185.41</ele>
        <time>2020-12-19T16:05:00Z</time>
      </trkpt>
      <trkpt lat="48.23087" lon="-0.07258">
        <ele>182.41</ele>
        <time>2020-12-19T16:05:30Z</time>
      </trkpt>
      <trkpt lat="48.23105" lon="-0.07235">
        <ele>174.41</ele>
        <time>2020-12-19T16:06:00Z</time>
      </trkpt>
      <trkpt lat="48.23127" lon="-0.07178">
        <ele>183.41</ele>
        <time>2020-12-19T16:06:31Z</time>
      </trkpt>
      <trkpt lat="48.23136" lon="-0.07151">
        <ele>185.41</ele>
        <time>2020-12-19T16:07:02Z</time>
      </trkpt>
      <trkpt lat="48.23116" lon="-0.07141">
        <ele>177.41</ele>
        <time>2020-12-19T16:07:35Z</time>
      </trkpt>
      <trkpt lat="48.23091" lon="-0.07134">
        <ele>175.41</ele>
        <time>2020-12-19T16:08:05Z</time>
      </trkpt>
      <trkpt lat="48.23068" lon="-0.07118">
        <ele>183.41</ele>
        <time>2020-12-19T16:08:35Z</time>
      </trkpt>
      <trkpt lat="48.23039" lon="-0.07101">
        <ele>181.41</ele>
        <time>2020-12-19T16:09:06Z</time>
      </trkpt>
      <trkpt lat="48.23021" lon="-0.07083">
        <ele>187.41</ele>
        <time>2020-12-19T16:09:37Z</time>
      </trkpt>
      <trkpt lat="48.22989" lon="-0.07063">
        <ele>198.41</ele>
        <time>2020-12-19T16:10:07Z</time>
      </trkpt>
      <trkpt lat="48.22961" lon="-0.07044">
        <ele>213.41</ele>
        <time>2020-12-19T16:10:37Z</time>
      </trkpt>
      <trkpt lat="48.22951" lon="-0.07032">
        <ele>217.41</ele>
        <time>2020-12-19T16:11:08Z</time>
      </trkpt>
      <trkpt lat="48.22924" lon="-0.07023">
        <ele>217.41</ele>
        <time>2020-12-19T16:11:38Z</time>
      </trkpt>
      <trkpt lat="48.22892" lon="-0.07004">
        <ele>216.41</ele>
        <time>2020-12-19T16:12:09Z</time>
      </trkpt>
      <trkpt lat="48.22866" lon="-0.06982">
        <ele>215.41</ele>
        <time>2020-12-19T16:12:43Z</time>
      </trkpt>
      <trkpt lat="48.22837" lon="-0.06965">
        <ele>223.41</ele>
        <time>2020-12-19T16:13:13Z</time>
      </trkpt>
      <trkpt lat="48.22809" lon="-0.06945">
        <ele>230.41</ele>
        <time>2020-12-19T16:13:45Z</time>
      </trkpt>
      <trkpt lat="48.22809" lon="-0.069">
        <ele>227.41</ele>
        <time>2020-12-19T16:14:16Z</time>
      </trkpt>
      <trkpt lat="48.22823" lon="-0.06857">
        <ele>227.41</ele>
        <time>2020-12-19T16:14:46Z</time>
      </trkpt>
      <trkpt lat="48.22828" lon="-0.06832">
        <ele>229.5</ele>
      </trkpt>
      <trkpt lat="48.22837" lon="-0.06802">
        <ele>226.3</ele>
      </trkpt>
      <trkpt lat="48.22829" lon="-0.06766">
        <ele>225.6</ele>
      </trkpt>
    </trkseg>
  </trk>
</gpx>